createdAt,value
2018-12-09T11:21:18.761Z,6.70
2018-12-09T11:23:53.890Z,6.60
2018-12-09T11:26:39.082Z,6.50
2018-12-09T11:29:17.689Z,6.40
2018-12-09T11:31:52.662Z,6.30
2018-12-09T11:34:31.874Z,6.20
2018-12-09T11:37:04.678Z,6.10
2018-12-09T11:39:39.746Z,6.10
2018-12-09T11:42:12.306Z,6.00
2018-12-09T11:44:46.683Z,6.00
2018-12-09T11:47:24.079Z,6.00
2018-12-09T11:49:54.727Z,6.00
2018-12-09T11:52:27.350Z,5.90
2018-12-09T11:55:06.038Z,5.80
2018-12-09T11:57:47.606Z,5.80
2018-12-09T12:00:20.376Z,5.80
2018-12-09T12:02:53.045Z,5.80
2018-12-09T12:08:22.556Z,5.80
2018-12-09T12:10:54.418Z,5.80
2018-12-09T12:13:32.669Z,5.90
2018-12-09T12:16:13.314Z,6.00
2018-12-09T12:18:48.344Z,6.10
2018-12-09T12:21:25.652Z,6.10
2018-12-09T12:23:59.551Z,6.10
2018-12-09T12:26:41.779Z,6.10
2018-12-09T12:29:29.890Z,6.00
2018-12-09T12:32:05.295Z,6.00
2018-12-09T12:34:44.816Z,6.00
2018-12-09T12:37:16.645Z,6.00
2018-12-09T12:39:48.818Z,5.90
2018-12-09T12:42:21.737Z,5.90
2018-12-09T12:44:53.777Z,5.90
2018-12-09T12:47:34.790Z,5.80
2018-12-09T12:50:07.025Z,5.90
2018-12-09T12:52:46.045Z,5.90
2018-12-09T12:55:27.594Z,6.00
2018-12-09T12:58:10.055Z,6.10
2018-12-09T13:00:45.953Z,6.10
2018-12-09T13:03:18.222Z,6.00
2018-12-09T13:06:00.095Z,6.00
2018-12-09T13:08:35.059Z,6.00
2018-12-09T13:11:09.744Z,6.00
2018-12-09T13:13:44.929Z,5.90
2018-12-09T13:16:17.692Z,5.90
2018-12-09T13:18:55.030Z,5.90
2018-12-09T13:21:28.066Z,6.00
2018-12-09T13:31:46.653Z,6.00
2018-12-09T13:34:34.030Z,6.10
2018-12-09T13:37:06.582Z,6.00
2018-12-09T13:39:47.726Z,6.00
2018-12-09T13:42:32.991Z,6.00
2018-12-09T13:45:29.909Z,5.90
2018-12-09T13:48:16.353Z,5.90
2018-12-09T13:50:57.041Z,5.80
2018-12-09T13:53:33.340Z,5.90
2018-12-09T13:56:16.950Z,5.80
2018-12-09T13:58:56.547Z,5.90
2018-12-09T14:01:29.812Z,5.80
2018-12-09T14:04:04.742Z,5.80
2018-12-09T14:06:54.342Z,5.90
2018-12-09T14:09:32.031Z,5.90
2018-12-09T14:12:07.390Z,5.90
2018-12-09T14:14:39.777Z,5.90
2018-12-09T14:17:12.895Z,5.90
2018-12-09T14:22:54.222Z,5.90
2018-12-09T14:25:25.329Z,5.90
